createdAt,value
2019-02-25T00:01:02.362Z,62.65
2019-02-25T00:03:38.286Z,62.66
2019-02-25T00:06:12.747Z,62.56
2019-02-25T00:08:47.038Z,62.69
2019-02-25T00:11:21.417Z,62.63
2019-02-25T00:13:55.399Z,62.62
2019-02-25T00:16:29.601Z,62.61
2019-02-25T00:19:03.719Z,62.52
2019-02-25T00:21:38.262Z,62.65
2019-02-25T00:24:12.410Z,62.63
2019-02-25T00:26:47.074Z,62.47
2019-02-25T00:29:21.218Z,62.60
2019-02-25T00:31:55.636Z,62.53
2019-02-25T00:34:29.831Z,62.60
2019-02-25T00:37:03.798Z,62.57
2019-02-25T00:39:37.962Z,62.42
2019-02-25T00:42:12.235Z,62.49
2019-02-25T00:44:46.227Z,62.50
2019-02-25T00:47:21.127Z,62.55
2019-02-25T00:49:55.031Z,62.49
2019-02-25T00:52:29.378Z,62.59
2019-02-25T00:55:03.745Z,62.47
2019-02-25T00:57:38.344Z,62.52
2019-02-25T01:00:15.633Z,62.52
2019-02-25T01:02:50.160Z,62.38
2019-02-25T01:05:24.547Z,62.46
2019-02-25T01:07:59.055Z,62.54
2019-02-25T01:10:33.409Z,62.49
2019-02-25T01:13:08.993Z,62.46
2019-02-25T01:15:42.962Z,62.49
2019-02-25T01:18:17.173Z,62.44
2019-02-25T01:20:51.732Z,62.53
2019-02-25T01:23:26.139Z,62.41
2019-02-25T01:26:00.627Z,62.48
2019-02-25T01:28:34.690Z,62.63
2019-02-25T01:31:09.076Z,62.59
2019-02-25T01:33:43.287Z,62.63
2019-02-25T01:36:17.515Z,62.60
2019-02-25T01:38:51.807Z,62.55
2019-02-25T01:41:25.953Z,62.63
2019-02-25T01:43:59.972Z,62.64
2019-02-25T01:46:34.204Z,62.54
2019-02-25T01:49:08.397Z,62.56
2019-02-25T01:51:42.410Z,62.51
2019-02-25T01:54:16.735Z,62.57
2019-02-25T01:56:51.138Z,62.60
2019-02-25T01:59:25.367Z,62.61
2019-02-25T02:01:59.489Z,62.54
2019-02-25T02:04:33.874Z,62.66
2019-02-25T02:07:08.081Z,62.48
2019-02-25T02:09:42.294Z,62.65
2019-02-25T02:12:16.509Z,62.60
2019-02-25T02:14:50.699Z,62.62
2019-02-25T02:17:24.721Z,62.76
2019-02-25T02:19:59.171Z,62.74
2019-02-25T02:22:33.609Z,62.68
2019-02-25T02:25:08.067Z,62.75
2019-02-25T02:27:42.404Z,62.78
2019-02-25T02:30:18.839Z,62.77
2019-02-25T02:32:52.990Z,62.75
2019-02-25T02:35:27.282Z,62.73
2019-02-25T02:38:01.371Z,62.76
2019-02-25T02:40:35.720Z,62.74
2019-02-25T02:43:09.933Z,62.77
2019-02-25T02:45:57.169Z,62.75
2019-02-25T02:48:47.339Z,62.78
2019-02-25T02:51:21.463Z,62.72
2019-02-25T02:53:55.655Z,62.76
2019-02-25T02:56:29.830Z,62.84
2019-02-25T02:59:03.919Z,62.84
2019-02-25T03:01:38.117Z,62.87
2019-02-25T03:04:13.349Z,62.79
2019-02-25T03:06:47.593Z,62.70
2019-02-25T03:09:21.724Z,62.65
2019-02-25T03:11:55.812Z,62.71
2019-02-25T03:14:30.030Z,62.78
2019-02-25T03:17:04.262Z,62.67
2019-02-25T03:19:38.369Z,62.49
2019-02-25T03:22:12.411Z,62.63
2019-02-25T03:24:47.019Z,62.59
2019-02-25T03:27:22.324Z,62.68
2019-02-25T03:29:56.667Z,62.69
2019-02-25T03:32:30.979Z,62.60
2019-02-25T03:35:06.226Z,62.52
2019-02-25T03:37:40.473Z,62.55
2019-02-25T03:40:16.444Z,62.50
2019-02-25T03:42:50.769Z,62.48
2019-02-25T03:45:25.138Z,62.51
2019-02-25T03:47:59.341Z,62.55
2019-02-25T03:50:33.312Z,62.62
2019-02-25T03:53:08.063Z,62.55
2019-02-25T03:55:42.410Z,62.55
2019-02-25T03:58:16.712Z,62.58
2019-02-25T04:00:51.217Z,62.58
2019-02-25T04:03:25.423Z,62.53
2019-02-25T04:05:59.926Z,62.50
2019-02-25T04:08:34.046Z,62.49
2019-02-25T04:11:08.214Z,62.54
2019-02-25T04:13:42.379Z,62.53
2019-02-25T04:16:16.643Z,62.48
2019-02-25T04:18:51.971Z,62.49
2019-02-25T04:21:26.178Z,62.52
2019-02-25T04:24:00.335Z,62.53
2019-02-25T04:26:34.579Z,62.52
2019-02-25T04:29:09.040Z,62.44
2019-02-25T04:31:43.206Z,62.51
2019-02-25T04:34:17.462Z,62.47
2019-02-25T04:36:51.438Z,62.40
2019-02-25T04:39:25.713Z,62.52
2019-02-25T04:42:00.138Z,62.51
2019-02-25T04:44:34.354Z,62.46
2019-02-25T04:47:08.236Z,62.55
2019-02-25T04:49:42.299Z,62.54
2019-02-25T04:52:16.595Z,62.51
2019-02-25T04:54:50.524Z,62.52
2019-02-25T04:57:24.764Z,62.59
2019-02-25T04:59:58.960Z,62.52
2019-02-25T05:02:32.990Z,62.47
2019-02-25T05:05:07.302Z,62.41
2019-02-25T05:07:41.609Z,62.36
2019-02-25T05:10:16.244Z,62.44
2019-02-25T05:12:56.881Z,62.50
2019-02-25T05:15:31.443Z,62.52
2019-02-25T05:18:05.421Z,62.43
2019-02-25T05:20:39.624Z,62.43
2019-02-25T05:23:13.996Z,62.49
2019-02-25T05:25:48.312Z,62.54
2019-02-25T05:28:22.633Z,62.54
2019-02-25T05:30:57.117Z,62.41
2019-02-25T05:33:31.534Z,62.36
2019-02-25T05:36:05.741Z,62.39
2019-02-25T05:38:39.924Z,62.51
2019-02-25T05:41:14.224Z,62.50
2019-02-25T05:43:48.408Z,62.49
2019-02-25T05:46:22.753Z,62.41
2019-02-25T05:48:57.232Z,62.46
2019-02-25T05:51:32.566Z,62.38
2019-02-25T05:54:07.039Z,62.32
2019-02-25T05:56:41.189Z,62.35
2019-02-25T05:59:15.410Z,62.26
2019-02-25T06:01:49.831Z,62.26
2019-02-25T06:04:23.815Z,62.25
2019-02-25T06:06:58.055Z,62.22
2019-02-25T06:09:32.577Z,62.10
2019-02-25T06:12:06.707Z,62.13
2019-02-25T06:14:41.086Z,62.06
2019-02-25T06:17:15.532Z,61.98
2019-02-25T06:19:50.016Z,62.00
2019-02-25T06:22:24.170Z,61.99
2019-02-25T06:24:58.489Z,61.99
2019-02-25T06:27:33.054Z,62.02
2019-02-25T06:30:08.101Z,61.94
2019-02-25T06:32:42.313Z,61.86
2019-02-25T06:35:16.890Z,61.80
2019-02-25T06:37:51.318Z,61.67
2019-02-25T06:40:25.768Z,61.64
2019-02-25T06:43:00.264Z,61.67
2019-02-25T06:45:34.674Z,61.63
2019-02-25T06:48:09.565Z,61.65
2019-02-25T06:50:43.970Z,61.66
2019-02-25T06:53:18.318Z,61.66
2019-02-25T06:55:52.732Z,61.58
2019-02-25T06:58:26.959Z,61.49
2019-02-25T07:01:00.932Z,61.53
2019-02-25T07:03:36.367Z,61.55
2019-02-25T07:06:27.289Z,61.55
2019-02-25T07:09:17.712Z,61.44
2019-02-25T07:12:23.232Z,61.52
2019-02-25T07:15:15.982Z,61.46
2019-02-25T07:18:12.374Z,61.45
2019-02-25T07:21:14.898Z,61.44
2019-02-25T07:23:59.490Z,61.37
2019-02-25T07:26:40.456Z,61.37
2019-02-25T07:29:22.987Z,61.43
2019-02-25T07:32:15.987Z,61.37
2019-02-25T07:35:09.148Z,61.31
2019-02-25T07:38:00.565Z,61.21
2019-02-25T07:41:02.631Z,61.32
2019-02-25T07:43:55.716Z,61.14
2019-02-25T07:46:52.347Z,61.03
2019-02-25T07:50:00.802Z,61.04
2019-02-25T07:53:02.955Z,60.94
2019-02-25T07:56:02.376Z,60.84
2019-02-25T07:58:56.604Z,60.88
2019-02-25T08:01:59.644Z,60.83
2019-02-25T08:04:45.814Z,60.91
2019-02-25T08:07:37.614Z,60.83
2019-02-25T08:10:22.104Z,60.72
2019-02-25T08:13:13.700Z,60.67
2019-02-25T08:16:12.690Z,60.74
2019-02-25T08:19:03.698Z,60.65
2019-02-25T08:21:56.393Z,60.66
2019-02-25T08:24:36.624Z,60.70
2019-02-25T08:27:20.393Z,60.68
2019-02-25T08:30:22.818Z,60.63
2019-02-25T08:33:27.747Z,60.61
2019-02-25T08:37:03.950Z,60.57
2019-02-25T08:40:08.133Z,60.62
2019-02-25T08:42:50.873Z,60.62
2019-02-25T08:45:29.284Z,60.74
2019-02-25T08:48:08.394Z,60.55
2019-02-25T08:50:42.587Z,60.51
2019-02-25T08:53:16.723Z,60.38
2019-02-25T08:55:51.059Z,60.40
2019-02-25T08:58:25.204Z,60.45
2019-02-25T09:00:59.406Z,60.37
2019-02-25T09:03:33.453Z,60.55
2019-02-25T09:06:07.642Z,60.63
2019-02-25T09:08:44.666Z,60.32
2019-02-25T09:11:18.745Z,60.20
2019-02-25T09:13:52.937Z,60.28
2019-02-25T09:16:27.282Z,59.36
2019-02-25T09:19:01.540Z,59.20
2019-02-25T09:21:35.789Z,58.89
2019-02-25T09:24:09.722Z,57.94
2019-02-25T09:26:44.167Z,58.52
2019-02-25T09:29:18.317Z,59.15
2019-02-25T09:31:52.302Z,58.86
2019-02-25T09:34:27.018Z,59.08
2019-02-25T09:37:01.585Z,59.19
2019-02-25T09:39:38.642Z,59.16
2019-02-25T09:42:14.616Z,59.61
2019-02-25T09:44:48.834Z,59.64
2019-02-25T09:47:22.821Z,59.79
2019-02-25T09:49:57.500Z,59.99
2019-02-25T09:52:31.681Z,59.93
2019-02-25T09:55:05.926Z,60.06
2019-02-25T09:57:41.613Z,59.95
2019-02-25T10:00:17.412Z,59.34
2019-02-25T10:02:51.391Z,59.29
2019-02-25T10:05:25.641Z,59.45
2019-02-25T10:07:59.817Z,59.50
2019-02-25T10:10:33.793Z,59.32
2019-02-25T10:13:08.077Z,59.43
2019-02-25T10:15:42.306Z,59.52
2019-02-25T10:18:16.513Z,59.56
2019-02-25T10:20:50.467Z,59.75
2019-02-25T10:23:24.521Z,59.83
2019-02-25T10:25:58.850Z,59.81
2019-02-25T10:28:33.312Z,59.74
2019-02-25T10:31:07.576Z,59.66
2019-02-25T10:33:43.132Z,59.60
2019-02-25T10:36:17.258Z,59.65
2019-02-25T10:38:51.574Z,59.62
2019-02-25T10:41:27.830Z,59.68
2019-02-25T10:44:02.688Z,59.69
2019-02-25T10:46:39.000Z,59.74
2019-02-25T10:49:13.396Z,59.70
2019-02-25T10:51:47.445Z,59.74
2019-02-25T10:54:23.287Z,59.85
2019-02-25T10:57:00.999Z,59.87
2019-02-25T10:59:36.904Z,59.92
2019-02-25T11:02:30.234Z,59.99
2019-02-25T11:05:04.525Z,60.06
2019-02-25T11:07:39.837Z,60.06
2019-02-25T11:10:26.213Z,60.17
2019-02-25T11:13:02.066Z,60.25
2019-02-25T11:15:39.609Z,60.28
2019-02-25T11:18:13.902Z,60.01
2019-02-25T11:20:48.112Z,59.98
2019-02-25T11:23:22.375Z,60.03
2019-02-25T11:25:57.972Z,60.11
2019-02-25T11:28:34.361Z,60.24
2019-02-25T11:31:11.019Z,60.26
2019-02-25T11:33:46.223Z,60.22
2019-02-25T11:36:22.012Z,60.22
2019-02-25T11:38:58.010Z,60.28
2019-02-25T11:41:34.346Z,60.29
2019-02-25T11:44:09.056Z,60.34
2019-02-25T11:46:43.551Z,60.42
2019-02-25T11:49:18.651Z,60.39
2019-02-25T11:51:53.105Z,60.38
2019-02-25T11:54:27.264Z,60.36
2019-02-25T11:57:01.557Z,60.34
2019-02-25T11:59:35.945Z,60.45
2019-02-25T12:02:10.199Z,60.50
2019-02-25T12:04:44.651Z,60.55
2019-02-25T12:07:18.941Z,60.60
2019-02-25T12:09:54.176Z,60.56
2019-02-25T12:12:28.996Z,60.67
2019-02-25T12:15:03.003Z,60.77
2019-02-25T12:17:38.818Z,60.90
2019-02-25T12:20:14.198Z,60.92
2019-02-25T12:22:48.380Z,61.09
2019-02-25T12:25:24.051Z,60.74
2019-02-25T12:27:58.323Z,61.09
2019-02-25T12:30:32.750Z,61.33
2019-02-25T12:33:07.925Z,61.30
2019-02-25T12:35:42.318Z,61.19
2019-02-25T12:38:16.722Z,61.23
2019-02-25T12:40:50.932Z,61.30
2019-02-25T12:43:25.911Z,61.34
2019-02-25T12:46:00.167Z,61.14
2019-02-25T12:48:34.401Z,60.79
2019-02-25T12:51:08.433Z,60.19
2019-02-25T12:53:42.399Z,60.34
2019-02-25T12:56:16.684Z,60.69
2019-02-25T12:58:50.779Z,60.85
2019-02-25T13:01:24.810Z,59.73
2019-02-25T13:03:58.832Z,60.24
2019-02-25T13:06:34.078Z,60.50
2019-02-25T13:09:15.671Z,60.48
2019-02-25T13:11:50.894Z,60.49
2019-02-25T13:14:25.546Z,60.55
2019-02-25T13:16:59.713Z,60.60
2019-02-25T13:19:33.750Z,60.71
2019-02-25T13:22:07.975Z,60.73
2019-02-25T13:24:44.415Z,60.79
2019-02-25T13:27:18.420Z,60.75
2019-02-25T13:29:53.653Z,59.96
2019-02-25T13:32:27.739Z,60.42
2019-02-25T13:35:01.743Z,58.62
2019-02-25T13:37:36.885Z,59.42
2019-02-25T13:40:11.818Z,60.15
2019-02-25T13:42:46.100Z,60.19
2019-02-25T13:45:20.303Z,60.39
2019-02-25T13:47:54.322Z,60.46
2019-02-25T13:50:28.508Z,59.88
2019-02-25T13:53:02.532Z,60.27
2019-02-25T13:55:36.924Z,60.14
2019-02-25T13:58:12.310Z,60.36
2019-02-25T14:00:46.680Z,60.58
2019-02-25T14:03:20.937Z,60.92
2019-02-25T14:05:55.274Z,60.66
2019-02-25T14:08:29.974Z,60.92
2019-02-25T14:11:04.296Z,61.47
2019-02-25T14:13:39.431Z,61.77
2019-02-25T14:16:13.720Z,61.67
2019-02-25T14:18:47.912Z,61.48
2019-02-25T14:21:23.254Z,61.65
2019-02-25T14:23:59.819Z,60.12
2019-02-25T14:26:37.447Z,59.67
2019-02-25T14:29:12.457Z,59.31
2019-02-25T14:31:48.945Z,57.84
2019-02-25T14:34:23.170Z,58.10
2019-02-25T14:36:57.958Z,57.70
2019-02-25T14:39:36.003Z,57.30
2019-02-25T14:42:11.932Z,55.74
2019-02-25T14:44:46.010Z,55.75
2019-02-25T14:47:22.923Z,54.82
2019-02-25T14:49:56.020Z,54.94
2019-02-25T14:52:31.805Z,56.06
2019-02-25T14:55:07.109Z,56.62
2019-02-25T14:57:43.713Z,56.67
2019-02-25T15:00:24.269Z,56.75
2019-02-25T15:02:57.928Z,55.82
2019-02-25T15:05:31.926Z,56.79
2019-02-25T15:08:06.286Z,56.50
2019-02-25T15:10:41.253Z,55.69
2019-02-25T15:13:16.832Z,55.42
2019-02-25T15:15:50.923Z,56.22
2019-02-25T15:18:26.562Z,55.43
2019-02-25T15:21:04.566Z,55.51
2019-02-25T15:23:38.367Z,55.66
2019-02-25T15:26:14.942Z,56.34
2019-02-25T15:28:51.625Z,55.48
2019-02-25T15:31:24.705Z,55.73
2019-02-25T15:33:59.053Z,54.68
2019-02-25T15:36:33.591Z,56.17
2019-02-25T15:39:11.299Z,51.70
2019-02-25T15:41:48.699Z,50.97
2019-02-25T15:44:23.590Z,51.28
2019-02-25T15:47:00.219Z,50.77
2019-02-25T15:49:35.840Z,51.15
2019-02-25T15:52:10.652Z,53.49
2019-02-25T15:54:44.856Z,53.66
2019-02-25T15:57:20.615Z,54.91
2019-02-25T15:59:54.823Z,54.04
2019-02-25T16:02:29.034Z,54.21
2019-02-25T16:05:05.770Z,54.85
2019-02-25T16:07:40.207Z,55.56
2019-02-25T16:10:16.343Z,56.05
2019-02-25T16:12:55.788Z,55.95
2019-02-25T16:15:30.613Z,56.45
2019-02-25T16:18:05.184Z,55.65
2019-02-25T16:20:39.546Z,54.44
2019-02-25T16:23:14.990Z,55.59
2019-02-25T16:25:53.178Z,56.11
2019-02-25T16:28:29.016Z,56.08
2019-02-25T16:31:06.071Z,56.32
2019-02-25T16:33:41.556Z,56.52
2019-02-25T16:36:16.017Z,56.64
2019-02-25T16:38:53.180Z,56.82
2019-02-25T16:41:29.890Z,56.92
2019-02-25T16:44:04.602Z,56.90
2019-02-25T16:46:41.218Z,56.96
2019-02-25T16:49:16.080Z,57.02
2019-02-25T16:51:51.030Z,57.09
2019-02-25T16:54:25.869Z,57.18
2019-02-25T16:57:01.288Z,57.22
2019-02-25T16:59:35.734Z,57.29
2019-02-25T17:02:13.992Z,57.39
2019-02-25T17:04:46.208Z,57.33
2019-02-25T17:07:22.614Z,57.40
2019-02-25T17:09:58.644Z,57.43
2019-02-25T17:12:33.023Z,57.50
2019-02-25T17:15:09.973Z,57.51
2019-02-25T17:17:44.151Z,57.61
2019-02-25T17:20:19.144Z,57.56
2019-02-25T18:19:05.083Z,58.48
2019-02-25T18:21:43.042Z,58.59
2019-02-25T18:24:15.605Z,58.66
2019-02-25T18:26:49.856Z,58.68
2019-02-25T18:29:25.185Z,58.77
2019-02-25T18:31:59.598Z,58.81
2019-02-25T18:34:34.404Z,58.82
2019-02-25T18:37:10.886Z,58.88
2019-02-25T18:39:45.676Z,58.83
2019-02-25T18:42:20.353Z,58.88
2019-02-25T18:44:54.635Z,58.87
2019-02-25T18:47:28.963Z,58.90
2019-02-25T18:50:02.979Z,58.86
2019-02-25T18:52:38.499Z,58.84
2019-02-25T18:55:14.972Z,58.95
2019-02-25T18:57:50.329Z,58.98
2019-02-25T19:00:29.622Z,59.04
2019-02-25T19:03:04.794Z,59.20
2019-02-25T19:05:39.226Z,59.10
2019-02-25T19:08:17.706Z,58.90
2019-02-25T19:10:53.199Z,59.02
2019-02-25T19:13:28.224Z,59.12
2019-02-25T19:16:03.817Z,59.13
2019-02-25T19:18:40.947Z,59.20
2019-02-25T19:21:14.063Z,59.22
2019-02-25T19:23:48.630Z,59.34
2019-02-25T19:26:24.211Z,59.26
2019-02-25T19:28:59.090Z,59.25
2019-02-25T19:31:33.349Z,59.11
2019-02-25T19:34:07.720Z,59.16
2019-02-25T19:36:42.113Z,59.13
2019-02-25T19:39:18.744Z,59.11
2019-02-25T19:41:53.913Z,59.18
2019-02-25T19:44:29.884Z,59.16
2019-02-25T19:47:04.767Z,59.06
2019-02-25T19:49:40.808Z,59.09
2019-02-25T19:52:16.846Z,59.15
2019-02-25T19:54:51.393Z,59.09
2019-02-25T19:57:26.705Z,59.10
2019-02-25T20:00:03.020Z,59.12
2019-02-25T20:02:38.241Z,59.08
2019-02-25T20:05:14.221Z,58.89
2019-02-25T20:07:48.610Z,58.83
2019-02-25T20:10:22.952Z,58.81
2019-02-25T20:12:57.855Z,58.86
2019-02-25T20:15:32.112Z,58.86
2019-02-25T20:18:07.702Z,58.90
2019-02-25T20:20:43.531Z,58.94
2019-02-25T20:23:19.986Z,58.94
2019-02-25T20:25:55.591Z,59.03
2019-02-25T20:28:30.057Z,58.97
2019-02-25T20:31:05.788Z,58.91
2019-02-25T20:33:40.735Z,58.92
2019-02-25T20:36:17.190Z,58.91
2019-02-25T20:38:51.045Z,58.93
2019-02-25T20:41:26.730Z,59.00
2019-02-25T20:44:03.302Z,59.04
2019-02-25T20:46:38.652Z,59.12
2019-02-25T20:49:16.121Z,59.13
2019-02-25T20:51:50.059Z,59.15
2019-02-25T20:54:25.721Z,59.11
2019-02-25T20:56:59.920Z,59.11
2019-02-25T20:59:34.902Z,59.11
2019-02-25T21:02:13.757Z,59.09
2019-02-25T21:04:46.046Z,59.11
2019-02-25T21:07:20.919Z,59.16
2019-02-25T21:09:56.983Z,59.13
2019-02-25T21:12:31.847Z,59.12
2019-02-25T21:15:06.328Z,59.24
2019-02-25T21:17:40.525Z,59.31
2019-02-25T21:20:15.981Z,59.30
2019-02-25T21:22:50.662Z,59.39
2019-02-25T21:25:26.847Z,59.41
2019-02-25T21:28:03.797Z,59.42
2019-02-25T21:30:41.190Z,59.46
2019-02-25T21:33:17.359Z,59.45
2019-02-25T21:35:49.709Z,59.47
2019-02-25T21:38:25.972Z,59.44
2019-02-25T21:40:59.843Z,59.50
2019-02-25T21:43:34.093Z,59.56
2019-02-25T21:46:08.360Z,59.58
2019-02-25T21:48:42.710Z,59.58
2019-02-25T21:51:17.846Z,59.62
2019-02-25T21:53:55.600Z,59.74
2019-02-25T21:56:28.433Z,59.72
2019-02-25T21:59:02.741Z,59.73
2019-02-25T22:01:38.917Z,59.71
2019-02-25T22:04:15.155Z,59.75
2019-02-25T22:06:51.024Z,59.80
2019-02-25T22:09:36.451Z,59.82
2019-02-25T22:12:01.149Z,59.81
2019-02-25T22:14:35.290Z,59.86
2019-02-25T22:17:09.778Z,59.80
2019-02-25T22:19:45.835Z,59.77
2019-02-25T22:22:24.176Z,59.82
2019-02-25T22:24:55.782Z,59.83
2019-02-25T22:27:30.165Z,59.92
2019-02-25T22:30:06.457Z,59.91
2019-02-25T22:32:41.371Z,59.92
2019-02-25T22:35:15.833Z,59.91
2019-02-25T22:37:52.748Z,59.95
2019-02-25T22:40:27.862Z,59.96
2019-02-25T22:43:02.433Z,60.00
2019-02-25T22:45:38.023Z,60.03
2019-02-25T22:48:14.051Z,60.02
2019-02-25T22:50:51.261Z,60.05
2019-02-25T22:53:24.769Z,60.09
2019-02-25T22:55:59.068Z,60.09
2019-02-25T22:58:34.613Z,60.15
2019-02-25T23:01:18.130Z,60.18
2019-02-25T23:03:55.028Z,60.16
2019-02-25T23:06:28.685Z,60.20
2019-02-25T23:09:03.141Z,60.18
2019-02-25T23:11:41.786Z,60.18
2019-02-25T23:14:16.306Z,60.26
2019-02-25T23:16:50.869Z,60.26
2019-02-25T23:19:25.346Z,60.28
2019-02-25T23:21:59.396Z,60.31
2019-02-25T23:24:35.269Z,60.31
2019-02-25T23:27:09.710Z,60.32
2019-02-25T23:29:47.752Z,60.40
2019-02-25T23:32:20.706Z,60.40
2019-02-25T23:34:55.368Z,60.41
2019-02-25T23:37:29.971Z,60.42
2019-02-25T23:40:05.145Z,60.43
2019-02-25T23:42:42.420Z,60.43
2019-02-25T23:45:21.112Z,60.59
2019-02-25T23:47:57.675Z,60.59
2019-02-25T23:50:31.870Z,60.56
2019-02-25T23:53:06.436Z,60.61
2019-02-25T23:55:43.163Z,60.71
2019-02-25T23:58:17.823Z,60.61
